Time;durP1;ratioP1;P1;durP2;ratioP2;P2;SDS_P1;SDS_P2;PMS_P1;PMS_P2;Temp;Humidity;BMP_temperature;BMP_pressure;BME280_temperature;BME280_humidity;BME280_pressure;Samples;Min_cycle;Max_cycle;Signal;HPM_P1;HPM_P2
2021/10/28 00:13:24;;;;;;;24.02;14.60;;;12.00;99.90;;;;;;4122720;28;20034;-74
2021/10/28 00:15:35;;;;;;;28.13;16.65;;;12.00;99.90;;;;;;4121060;28;20043;-73
2021/10/28 00:19:41;;;;;;;24.80;15.77;;;12.00;99.90;;;;;;4117617;28;20050;-74
2021/10/28 00:21:42;;;;;;;30.40;16.85;;;12.00;99.90;;;;;;4115623;28;20128;-74
2021/10/28 00:23:46;;;;;;;26.30;14.98;;;12.00;99.90;;;;;;4118565;28;20042;-74
2021/10/28 00:25:47;;;;;;;23.33;14.43;;;12.00;99.90;;;;;;4118481;28;20705;-74
2021/10/28 00:27:51;;;;;;;23.45;14.50;;;11.90;99.90;;;;;;4117360;28;20038;-74
2021/10/28 00:29:52;;;;;;;23.75;14.02;;;11.90;99.90;;;;;;4119473;28;20495;-74
2021/10/28 00:31:56;;;;;;;24.05;15.30;;;12.00;99.90;;;;;;4119594;28;20042;-73
2021/10/28 00:33:59;;;;;;;26.52;15.40;;;11.90;99.90;;;;;;4118403;28;20446;-74
2021/10/28 00:36:02;;;;;;;28.40;15.75;;;11.90;99.90;;;;;;4115711;28;20130;-74
2021/10/28 00:38:03;;;;;;;25.88;15.98;;;11.90;99.90;;;;;;4119030;28;20042;-74
2021/10/28 00:40:07;;;;;;;26.08;14.45;;;11.90;99.90;;;;;;4116635;28;20038;-74
2021/10/28 00:42:09;;;;;;;27.17;15.65;;;11.90;99.90;;;;;;4120014;28;20042;-74
2021/10/28 00:44:12;;;;;;;24.48;16.13;;;11.90;99.90;;;;;;4120624;28;20135;-74
2021/10/28 00:46:17;;;;;;;27.27;15.40;;;11.90;99.90;;;;;;4116384;28;20137;-74
2021/10/28 00:48:19;;;;;;;26.17;16.60;;;11.90;99.90;;;;;;4120310;28;20515;-74
2021/10/28 00:50:21;;;;;;;28.30;16.55;;;11.90;99.90;;;;;;4119473;28;20034;-74
2021/10/28 00:52:21;;;;;;;26.92;17.48;;;11.90;99.90;;;;;;4119286;28;20043;-74
2021/10/28 00:54:22;;;;;;;24.02;15.20;;;11.80;99.90;;;;;;4120328;28;20097;-74
2021/10/28 00:56:25;;;;;;;23.95;14.95;;;11.70;99.90;;;;;;4119830;28;20042;-74
2021/10/28 00:58:28;;;;;;;20.75;13.60;;;11.70;99.90;;;;;;4117138;28;20318;-74
2021/10/28 01:00:29;;;;;;;18.20;11.23;;;11.70;99.90;;;;;;4116901;28;20035;-74
2021/10/28 01:02:29;;;;;;;20.58;11.15;;;11.70;99.90;;;;;;4119307;28;20238;-74
2021/10/28 01:04:30;;;;;;;21.65;12.27;;;11.70;99.90;;;;;;4120556;28;20038;-74
2021/10/28 01:06:32;;;;;;;19.23;10.80;;;11.70;99.90;;;;;;4119986;28;20034;-74
2021/10/28 01:08:37;;;;;;;17.60;9.43;;;11.70;99.90;;;;;;4119566;28;20027;-74
2021/10/28 01:10:38;;;;;;;18.58;9.65;;;11.60;99.90;;;;;;4119334;28;20045;-74
2021/10/28 01:12:39;;;;;;;15.30;9.18;;;11.60;99.90;;;;;;4120052;28;20093;-74
2021/10/28 01:14:44;;;;;;;17.65;8.98;;;11.60;99.90;;;;;;4119998;28;20038;-74
2021/10/28 01:16:45;;;;;;;15.77;8.38;;;11.60;99.90;;;;;;4120458;28;20153;-74
2021/10/28 01:18:46;;;;;;;13.20;8.80;;;11.60;99.90;;;;;;4123164;28;20069;-74
2021/10/28 01:20:51;;;;;;;13.90;8.13;;;11.60;99.90;;;;;;4121750;28;20092;-74
2021/10/28 01:22:51;;;;;;;14.55;8.13;;;11.60;99.90;;;;;;4122674;28;20461;-74
2021/10/28 01:24:53;;;;;;;11.93;7.90;;;11.60;99.90;;;;;;4121133;28;20302;-74
2021/10/28 01:27:02;;;;;;;12.10;7.32;;;11.60;99.90;;;;;;4121360;28;22309;-74
2021/10/28 01:29:03;;;;;;;11.10;7.30;;;11.60;99.90;;;;;;4122905;28;20129;-73
2021/10/28 01:31:07;;;;;;;14.38;7.45;;;11.60;99.90;;;;;;4121145;28;20497;-74
2021/10/28 01:33:07;;;;;;;12.00;7.70;;;11.60;99.90;;;;;;4121130;28;20046;-74
2021/10/28 01:35:10;;;;;;;14.65;7.68;;;11.60;99.90;;;;;;4122544;28;20038;-74
2021/10/28 01:37:12;;;;;;;;;;;11.60;99.90;;;;;;4120846;28;20069;-74
2021/10/28 01:39:23;;;;;;;18.73;7.50;;;11.50;99.90;;;;;;4123147;28;19941;-74
2021/10/28 01:41:26;;;;;;;10.90;7.07;;;11.50;99.90;;;;;;4122474;28;20038;-74
2021/10/28 01:43:28;;;;;;;13.98;8.35;;;11.40;99.90;;;;;;4120847;28;20069;-74
2021/10/28 01:45:29;;;;;;;14.73;8.30;;;11.40;99.90;;;;;;4124424;28;20038;-73
2021/10/28 01:47:30;;;;;;;14.02;8.15;;;11.40;99.90;;;;;;4122460;28;20036;-74
2021/10/28 01:49:32;;;;;;;12.32;8.15;;;11.40;99.90;;;;;;4124854;28;20482;-74
2021/10/28 01:51:32;;;;;;;15.77;8.43;;;11.40;99.90;;;;;;4122347;28;20050;-74
2021/10/28 01:53:41;;;;;;;15.73;9.15;;;11.40;99.90;;;;;;4126309;28;20107;-74
2021/10/28 01:55:42;;;;;;;11.98;7.85;;;11.40;99.90;;;;;;4124974;28;20477;-74
2021/10/28 01:57:43;;;;;;;16.75;9.57;;;11.40;99.90;;;;;;4126327;28;20108;-74
2021/10/28 01:59:44;;;;;;;15.43;8.18;;;11.40;99.90;;;;;;4122393;28;20133;-74
2021/10/28 02:01:45;;;;;;;17.73;9.38;;;11.40;99.90;;;;;;4119087;28;20097;-74
2021/10/28 02:03:46;;;;;;;14.32;9.05;;;11.40;99.90;;;;;;4122283;28;20430;-74
2021/10/28 02:05:49;;;;;;;18.85;9.32;;;11.40;99.90;;;;;;4124758;28;20045;-74
2021/10/28 02:07:50;;;;;;;14.80;8.88;;;11.40;99.90;;;;;;4125470;28;20395;-74
2021/10/28 02:09:51;;;;;;;15.20;9.18;;;11.40;99.90;;;;;;4125054;28;20049;-74
2021/10/28 02:11:51;;;;;;;13.85;8.85;;;11.40;99.90;;;;;;4120424;28;20054;-74
2021/10/28 02:13:53;;;;;;;16.38;9.05;;;11.40;99.90;;;;;;4119432;28;20038;-74
2021/10/28 02:15:54;;;;;;;13.07;8.80;;;11.40;99.90;;;;;;4123144;28;20057;-74
2021/10/28 02:17:54;;;;;;;14.30;8.90;;;11.50;99.90;;;;;;4123518;28;20042;-74
2021/10/28 02:19:55;;;;;;;18.42;9.82;;;11.50;99.90;;;;;;4122404;28;20411;-74
2021/10/28 02:21:56;;;;;;;18.08;9.77;;;11.50;99.90;;;;;;4122887;28;20050;-74
2021/10/28 02:23:57;;;;;;;16.85;9.95;;;11.40;99.90;;;;;;4118993;28;20054;-74
2021/10/28 02:25:57;;;;;;;17.77;10.82;;;11.40;99.90;;;;;;4119364;28;20042;-74
2021/10/28 02:27:58;;;;;;;15.75;10.07;;;11.40;99.90;;;;;;4124626;28;20383;-74
2021/10/28 02:29:59;;;;;;;15.95;9.77;;;11.40;99.90;;;;;;4121677;28;20041;-74
2021/10/28 02:32:00;;;;;;;16.23;10.05;;;11.40;99.90;;;;;;4123249;28;20434;-74
2021/10/28 02:34:01;;;;;;;16.50;10.63;;;11.40;99.90;;;;;;4121247;28;20919;-74
2021/10/28 02:36:01;;;;;;;17.45;9.57;;;11.40;99.90;;;;;;4123730;28;20039;-74
2021/10/28 02:38:02;;;;;;;17.60;12.50;;;11.40;99.90;;;;;;4122577;28;20134;-74
2021/10/28 02:40:04;;;;;;;16.63;10.38;;;11.40;99.90;;;;;;4122002;28;20526;-74
2021/10/28 02:42:06;;;;;;;22.77;11.87;;;11.30;99.90;;;;;;4121670;28;20060;-74
2021/10/28 02:44:06;;;;;;;18.88;11.50;;;11.20;99.90;;;;;;4124845;28;20481;-74
2021/10/28 02:46:07;;;;;;;19.40;11.77;;;11.20;99.90;;;;;;4124397;28;20384;-74
2021/10/28 02:48:08;;;;;;;17.85;11.65;;;11.20;99.90;;;;;;4122807;28;20485;-74
2021/10/28 02:50:08;;;;;;;19.02;12.10;;;11.20;99.90;;;;;;4121940;28;20026;-74
2021/10/28 02:52:09;;;;;;;18.48;12.05;;;11.20;99.90;;;;;;4124991;28;20038;-74
2021/10/28 02:54:09;;;;;;;17.92;11.48;;;11.30;99.90;;;;;;4121529;28;20128;-73
2021/10/28 02:56:10;;;;;;;19.02;11.32;;;11.20;99.90;;;;;;4122419;28;20504;-74
2021/10/28 02:58:11;;;;;;;19.95;11.90;;;11.30;99.90;;;;;;4121040;28;20085;-74
2021/10/28 03:00:12;;;;;;;20.20;12.77;;;11.20;99.90;;;;;;4119920;28;20042;-74
2021/10/28 03:02:13;;;;;;;23.30;13.50;;;11.30;99.90;;;;;;4118602;28;20038;-74
2021/10/28 03:04:16;;;;;;;22.00;13.90;;;11.30;99.90;;;;;;4105444;28;20585;-74
2021/10/28 03:06:17;;;;;;;23.45;14.00;;;11.20;99.90;;;;;;4121162;28;20207;-74
2021/10/28 03:08:18;;;;;;;20.17;12.90;;;11.20;99.90;;;;;;4125658;28;20053;-74
2021/10/28 03:10:18;;;;;;;20.50;12.98;;;11.20;99.90;;;;;;4126775;28;20038;-74
2021/10/28 03:12:19;;;;;;;22.38;14.77;;;11.20;99.90;;;;;;4119012;28;20046;-74
2021/10/28 03:14:44;;;;;;;21.70;13.82;;;11.20;99.90;;;;;;4120523;28;20498;-74
2021/10/28 03:16:53;;;;;;;24.38;15.77;;;11.20;99.90;;;;;;4121184;28;20038;-74
2021/10/28 03:25:51;;;;;;;25.13;14.55;;;11.10;99.90;;;;;;4121425;28;20583;-74
2021/10/28 03:27:52;;;;;;;22.35;13.68;;;11.10;99.90;;;;;;4121635;28;20070;-74
2021/10/28 03:29:52;;;;;;;24.55;14.95;;;11.00;99.90;;;;;;4124264;28;20059;-74
2021/10/28 03:31:53;;;;;;;22.13;14.00;;;11.00;99.90;;;;;;4119874;28;20414;-74
2021/10/28 03:33:55;;;;;;;23.85;14.45;;;11.00;99.90;;;;;;4124368;28;20549;-74
2021/10/28 03:35:55;;;;;;;19.63;12.77;;;11.00;99.90;;;;;;4122557;28;20398;-74
2021/10/28 03:38:00;;;;;;;20.48;13.57;;;11.00;99.90;;;;;;4119326;28;20031;-74
2021/10/28 04:06:21;;;;;;;21.63;14.20;;;10.90;99.90;;;;;;4119555;28;20576;-74
2021/10/28 04:19:56;;;;;;;29.88;17.83;;;10.70;99.90;;;;;;4125325;28;20093;-74
2021/10/28 04:29:05;;;;;;;27.52;17.02;;;10.70;99.90;;;;;;4120977;28;20322;-74
2021/10/28 04:31:07;;;;;;;28.63;18.42;;;10.70;99.90;;;;;;4122945;28;20149;-74
2021/10/28 04:33:08;;;;;;;28.92;17.75;;;10.70;99.90;;;;;;4121199;28;20046;-74
2021/10/28 04:35:09;;;;;;;27.85;17.10;;;10.70;99.90;;;;;;4122614;28;20058;-74
2021/10/28 04:37:10;;;;;;;31.50;18.38;;;10.70;99.90;;;;;;4121572;28;20018;-74
2021/10/28 04:39:11;;;;;;;27.33;17.58;;;10.70;99.90;;;;;;4122828;28;20125;-73
2021/10/28 04:41:11;;;;;;;32.13;19.52;;;10.70;99.90;;;;;;4119703;28;20085;-74
2021/10/28 04:43:12;;;;;;;30.83;18.25;;;10.60;99.90;;;;;;4124283;28;20100;-74
2021/10/28 04:45:13;;;;;;;27.00;16.98;;;10.70;99.90;;;;;;4123163;28;20498;-74
2021/10/28 04:47:13;;;;;;;28.58;18.23;;;10.70;99.90;;;;;;4125048;28;20060;-74
2021/10/28 04:49:14;;;;;;;26.17;16.13;;;10.70;99.90;;;;;;4122789;28;20038;-74
2021/10/28 04:51:15;;;;;;;28.77;17.23;;;10.70;99.90;;;;;;4130818;28;20026;-74
2021/10/28 04:53:15;;;;;;;29.67;19.10;;;10.70;99.90;;;;;;4122961;28;20046;-74
2021/10/28 04:55:16;;;;;;;26.63;17.50;;;10.60;99.90;;;;;;4126855;28;20046;-74
2021/10/28 04:57:16;;;;;;;26.88;17.45;;;10.70;99.90;;;;;;4124198;28;20141;-74
2021/10/28 04:59:17;;;;;;;27.77;16.85;;;10.70;99.90;;;;;;4120983;28;20052;-74
2021/10/28 05:01:21;;;;;;;28.38;17.73;;;10.70;99.90;;;;;;4123231;28;20497;-74
2021/10/28 05:03:21;;;;;;;27.38;17.38;;;10.70;99.90;;;;;;4124265;28;20450;-74
2021/10/28 05:05:22;;;;;;;26.25;16.85;;;10.70;99.90;;;;;;4128269;28;20096;-73
2021/10/28 05:07:23;;;;;;;28.90;16.85;;;10.70;99.90;;;;;;4122892;28;20050;-74
2021/10/28 05:09:28;;;;;;;29.92;18.05;;;10.70;99.90;;;;;;4125205;28;20041;-74
2021/10/28 05:11:29;;;;;;;26.30;16.48;;;10.70;99.90;;;;;;4120622;28;20125;-74
2021/10/28 05:13:30;;;;;;;27.02;17.33;;;10.70;99.90;;;;;;4121220;28;20297;-74
2021/10/28 05:15:31;;;;;;;26.60;16.50;;;10.70;99.90;;;;;;4126606;28;20040;-74
2021/10/28 05:17:31;;;;;;;31.35;18.48;;;10.70;99.90;;;;;;4123002;28;20121;-74
2021/10/28 05:19:37;;;;;;;30.90;18.92;;;10.70;99.90;;;;;;4127281;28;20033;-74
2021/10/28 05:21:38;;;;;;;29.45;18.25;;;10.70;99.90;;;;;;4127735;28;20045;-74
2021/10/28 05:23:39;;;;;;;32.00;19.95;;;10.70;99.90;;;;;;4123211;28;20037;-74
2021/10/28 05:25:40;;;;;;;32.72;20.25;;;10.70;99.90;;;;;;4125377;28;20042;-74
2021/10/28 05:27:40;;;;;;;32.35;19.88;;;10.70;99.90;;;;;;4127412;28;20387;-74
2021/10/28 05:29:41;;;;;;;31.55;18.90;;;10.60;99.90;;;;;;4126044;28;20049;-74
2021/10/28 05:31:42;;;;;;;34.75;19.55;;;10.60;99.90;;;;;;4120616;28;20103;-74
2021/10/28 05:33:43;;;;;;;30.80;19.85;;;10.60;99.90;;;;;;4127576;28;20133;-74
2021/10/28 05:35:43;;;;;;;28.67;19.08;;;10.60;99.90;;;;;;4120893;28;20038;-74
2021/10/28 05:37:44;;;;;;;27.38;17.73;;;10.60;99.90;;;;;;4124943;28;20038;-74
2021/10/28 05:39:45;;;;;;;29.08;18.67;;;10.60;99.90;;;;;;4124230;28;20049;-74
2021/10/28 05:41:47;;;;;;;29.83;18.17;;;10.60;99.90;;;;;;4124969;28;20441;-74
2021/10/28 05:43:47;;;;;;;29.38;18.05;;;10.60;99.90;;;;;;4123506;28;20042;-74
2021/10/28 05:45:49;;;;;;;27.45;17.55;;;10.60;99.90;;;;;;4121107;28;20239;-74
2021/10/28 05:47:50;;;;;;;29.08;16.98;;;10.60;99.90;;;;;;4128808;28;20042;-74
2021/10/28 05:49:50;;;;;;;28.40;18.85;;;10.60;99.90;;;;;;4124958;28;20041;-74
2021/10/28 05:51:51;;;;;;;32.78;18.25;;;10.60;99.90;;;;;;4122685;28;20064;-74
2021/10/28 05:53:52;;;;;;;26.98;17.42;;;10.60;99.90;;;;;;4122110;28;20042;-74
2021/10/28 05:55:52;;;;;;;32.35;19.70;;;10.50;99.90;;;;;;4125186;28;20453;-74
2021/10/28 05:57:54;;;;;;;35.63;19.65;;;10.50;99.90;;;;;;4122712;28;20069;-73
2021/10/28 05:59:54;;;;;;;30.50;18.42;;;10.40;99.90;;;;;;4120753;28;20823;-75
2021/10/28 06:01:55;;;;;;;30.23;18.10;;;10.40;99.90;;;;;;4119862;28;20680;-75
2021/10/28 06:03:56;;;;;;;30.25;18.80;;;10.40;99.90;;;;;;4121810;28;20046;-75
2021/10/28 06:05:56;;;;;;;28.15;17.35;;;10.40;99.90;;;;;;4126320;28;20042;-75
2021/10/28 06:07:57;;;;;;;30.02;17.75;;;10.40;99.90;;;;;;4123285;28;20074;-75
2021/10/28 06:09:58;;;;;;;21.58;14.45;;;10.40;99.90;;;;;;4124054;28;20030;-74
2021/10/28 06:11:58;;;;;;;30.30;17.80;;;10.40;99.90;;;;;;4118958;28;20039;-75
2021/10/28 06:13:59;;;;;;;26.95;17.50;;;10.50;99.90;;;;;;4118457;28;20433;-75
2021/10/28 06:16:00;;;;;;;34.45;19.48;;;10.50;99.90;;;;;;4119461;28;20413;-75
2021/10/28 06:18:49;;;;;;;28.33;17.98;;;10.40;99.90;;;;;;4124337;28;20066;-75
2021/10/28 06:20:22;;;;;;;30.80;18.92;;;10.40;99.90;;;;;;4108569;28;20042;-75
2021/10/28 06:22:23;;;;;;;28.95;17.13;;;10.40;99.90;;;;;;4124454;28;20126;-75
2021/10/28 06:24:23;;;;;;;30.40;18.65;;;10.40;99.90;;;;;;4123760;28;20496;-75
2021/10/28 06:26:26;;;;;;;28.65;17.73;;;10.40;99.90;;;;;;4119416;28;20116;-75
2021/10/28 06:28:26;;;;;;;28.20;17.73;;;10.40;99.90;;;;;;4119325;28;20030;-75
2021/10/28 06:30:27;;;;;;;28.27;17.05;;;10.40;99.90;;;;;;4124617;28;20047;-75
2021/10/28 06:32:28;;;;;;;26.40;16.38;;;10.40;99.90;;;;;;4122992;28;20034;-73
2021/10/28 06:34:37;;;;;;;31.17;18.90;;;10.40;99.90;;;;;;4120109;28;20245;-73
2021/10/28 06:36:38;;;;;;;27.38;16.13;;;10.40;99.90;;;;;;4121453;28;20099;-73
2021/10/28 06:38:39;;;;;;;26.90;16.20;;;10.40;99.90;;;;;;4120699;28;20048;-73
2021/10/28 06:40:40;;;;;;;31.20;18.15;;;10.40;99.90;;;;;;4124782;28;20117;-74
2021/10/28 06:42:41;;;;;;;28.25;17.17;;;10.40;99.90;;;;;;4124985;28;20353;-74
2021/10/28 06:44:43;;;;;;;27.48;17.83;;;10.40;99.90;;;;;;4124986;28;20140;-73
2021/10/28 06:46:44;;;;;;;31.23;18.33;;;10.40;99.90;;;;;;4125210;28;20089;-74
2021/10/28 06:48:45;;;;;;;33.83;19.10;;;10.50;99.90;;;;;;4122566;28;20499;-73
2021/10/28 06:50:58;;;;;;;34.35;19.17;;;10.40;99.90;;;;;;4119946;28;20121;-73
2021/10/28 06:55:11;;;;;;;28.80;17.05;;;10.40;99.90;;;;;;4118518;28;20050;-74
2021/10/28 07:03:53;;;;;;;30.05;17.73;;;10.30;99.90;;;;;;4121561;28;20050;-74
2021/10/28 07:06:01;;;;;;;31.00;17.95;;;10.40;99.90;;;;;;4116217;28;20050;-74
2021/10/28 07:08:01;;;;;;;26.02;16.83;;;10.40;99.90;;;;;;4137044;28;20030;-74
2021/10/28 07:10:16;;;;;;;33.53;18.75;;;10.40;99.90;;;;;;4119756;28;20520;-74
2021/10/28 07:12:30;;;;;;;33.20;18.10;;;10.40;99.90;;;;;;4122151;28;20030;-73
2021/10/28 07:14:31;;;;;;;31.02;17.00;;;10.40;99.90;;;;;;4123556;28;20513;-74
2021/10/28 07:16:47;;;;;;;31.00;18.85;;;10.50;99.90;;;;;;4120216;28;20034;-74
2021/10/28 07:23:18;;;;;;;30.85;18.33;;;10.60;99.90;;;;;;4117568;28;20081;-74
2021/10/28 07:27:39;;;;;;;30.48;17.83;;;10.70;99.90;;;;;;4121356;28;20054;-74
2021/10/28 07:30:14;;;;;;;32.83;18.80;;;10.80;99.90;;;;;;4119833;28;20050;-74
2021/10/28 07:38:51;;;;;;;28.65;17.92;;;11.60;99.90;;;;;;4118491;28;20405;-74
2021/10/28 08:06:23;;;;;;;25.38;17.23;;;14.00;99.90;;;;;;4119917;28;20113;-74
2021/10/28 08:21:47;;;;;;;24.20;16.38;;;15.00;99.90;;;;;;4122241;28;20054;-75
2021/10/28 08:28:49;;;;;;;20.25;13.60;;;15.50;99.90;;;;;;4113642;28;20046;-74
2021/10/28 08:30:50;;;;;;;24.80;14.10;;;15.60;99.90;;;;;;4117796;28;20035;-74
2021/10/28 08:32:52;;;;;;;23.48;13.82;;;15.70;99.90;;;;;;4105801;28;20042;-74
2021/10/28 08:34:54;;;;;;;24.02;15.70;;;15.90;99.90;;;;;;4123900;28;20154;-75
2021/10/28 08:36:55;;;;;;;20.10;12.82;;;16.00;99.90;;;;;;4120244;28;20107;-75
2021/10/28 08:38:56;;;;;;;19.45;12.63;;;16.20;99.90;;;;;;4121925;28;20113;-75
2021/10/28 08:40:57;;;;;;;23.35;14.80;;;16.40;99.90;;;;;;4122647;28;20034;-74
2021/10/28 08:42:58;;;;;;;23.23;15.43;;;16.40;99.90;;;;;;4123818;28;20031;-75
2021/10/28 08:44:59;;;;;;;22.13;14.38;;;16.40;99.90;;;;;;4124604;28;20037;-75
2021/10/28 08:47:03;;;;;;;23.45;15.90;;;16.30;99.90;;;;;;4121731;28;20137;-75
2021/10/28 08:49:06;;;;;;;23.92;16.13;;;16.30;99.90;;;;;;4123452;28;20501;-74
2021/10/28 08:51:55;;;;;;;26.17;16.30;;;16.20;99.90;;;;;;4119147;28;20375;-74
2021/10/28 08:55:44;;;;;;;20.85;13.63;;;16.20;99.90;;;;;;4123127;28;20505;-75
2021/10/28 09:24:07;;;;;;;23.20;14.77;;;15.70;99.90;;;;;;4121080;28;20458;-74
2021/10/28 09:26:40;;;;;;;26.30;15.30;;;15.70;99.90;;;;;;4118873;28;20129;-74
2021/10/28 09:28:46;;;;;;;21.20;13.15;;;15.70;99.90;;;;;;4120646;28;20046;-74
2021/10/28 09:30:58;;;;;;;22.42;13.35;;;15.70;99.90;;;;;;4122323;28;20042;-74
2021/10/28 09:33:20;;;;;;;17.38;12.23;;;15.70;99.90;;;;;;4121887;28;20042;-74
2021/10/28 09:35:44;;;;;;;22.00;13.05;;;15.70;99.90;;;;;;4120898;28;20045;-74
2021/10/28 09:47:19;;;;;;;18.08;11.65;;;15.80;99.90;;;;;;4120688;28;20037;-75
2021/10/28 09:58:32;;;;;;;16.98;10.60;;;15.90;99.90;;;;;;4119923;28;20046;-75
2021/10/28 10:00:37;;;;;;;21.33;10.52;;;15.90;99.90;;;;;;4122563;28;20109;-74
2021/10/28 10:02:42;;;;;;;18.98;9.48;;;15.90;99.90;;;;;;4120489;28;20046;-74
2021/10/28 10:04:45;;;;;;;16.50;10.43;;;15.90;99.90;;;;;;4118434;28;20524;-74
2021/10/28 10:06:46;;;;;;;16.20;9.52;;;15.90;99.90;;;;;;4120377;28;20038;-74
2021/10/28 10:08:48;;;;;;;13.27;8.65;;;15.90;99.90;;;;;;4122079;28;20434;-74
2021/10/28 10:10:48;;;;;;;16.65;9.38;;;16.00;99.90;;;;;;4120039;28;20034;-74
2021/10/28 10:12:50;;;;;;;16.40;9.77;;;16.00;99.90;;;;;;4119947;28;20134;-74
2021/10/28 10:14:51;;;;;;;13.55;9.25;;;16.10;99.90;;;;;;4120682;28;20062;-74
2021/10/28 10:16:51;;;;;;;16.23;10.75;;;16.10;99.90;;;;;;4119832;28;20026;-74
2021/10/28 10:18:52;;;;;;;15.48;10.15;;;16.10;99.90;;;;;;4122583;28;20039;-74
2021/10/28 10:20:58;;;;;;;15.10;9.98;;;16.00;99.90;;;;;;4121979;28;20042;-74
2021/10/28 11:19:46;;;;;;;9.55;6.07;;;16.30;99.90;;;;;;4070023;29;20063;-74
2021/10/28 12:49:32;;;;;;;11.23;5.05;;;17.20;99.90;;;;;;4121027;28;20054;-74
2021/10/28 12:52:21;;;;;;;12.35;5.63;;;17.20;99.90;;;;;;4117603;28;20562;-74
2021/10/28 13:28:01;;;;;;;7.35;5.15;;;17.50;99.90;;;;;;4119577;28;20086;-74
2021/10/28 13:28:12;;;;;;;7.93;5.10;;;17.40;99.90;;;;;;4123138;28;20027;-74
2021/10/28 13:48:24;;;;;;;9.05;4.43;;;17.50;99.90;;;;;;4122527;28;20117;-74
2021/10/28 13:50:40;;;;;;;6.32;4.03;;;17.50;99.90;;;;;;4121050;28;20626;-74
2021/10/28 13:53:04;;;;;;;7.97;4.13;;;17.50;99.90;;;;;;4122439;28;20038;-74
2021/10/28 13:57:39;;;;;;;7.05;4.25;;;17.50;99.90;;;;;;4122617;28;20030;-74
2021/10/28 15:27:38;;;;;;;11.32;4.68;;;17.10;99.90;;;;;;4122432;28;20042;-74
2021/10/28 15:29:12;;;;;;;8.23;4.90;;;16.80;99.90;;;;;;4119448;28;20507;-74
2021/10/28 15:35:40;;;;;;;7.50;4.63;;;16.70;99.90;;;;;;4121162;28;20426;-74
2021/10/28 15:40:32;;;;;;;7.82;4.47;;;16.70;99.90;;;;;;4118688;28;20031;-74
2021/10/28 15:50:06;;;;;;;6.43;4.50;;;16.50;99.90;;;;;;4120226;28;20038;-74
2021/10/28 15:52:26;;;;;;;7.68;4.47;;;16.40;99.90;;;;;;4118997;28;20058;-74
2021/10/28 15:55:06;;;;;;;7.60;4.68;;;16.40;99.90;;;;;;4119498;28;20478;-74
2021/10/28 16:01:04;;;;;;;8.20;5.32;;;16.30;99.90;;;;;;4118550;28;20429;-74
2021/10/28 16:21:51;;;;;;;11.68;6.68;;;15.90;99.90;;;;;;4119267;28;20042;-73
2021/10/28 16:23:52;;;;;;;8.77;5.63;;;15.80;99.90;;;;;;4120922;28;20116;-74
2021/10/28 16:25:52;;;;;;;8.32;5.93;;;15.80;99.90;;;;;;4118900;28;20050;-74
2021/10/28 16:27:53;;;;;;;14.18;7.03;;;15.70;99.90;;;;;;4120925;28;20031;-73
2021/10/28 16:29:53;;;;;;;11.43;6.93;;;15.70;99.90;;;;;;4119000;28;20486;-73
2021/10/28 16:31:55;;;;;;;9.30;6.20;;;15.70;99.90;;;;;;4119719;28;20039;-73
2021/10/28 16:33:56;;;;;;;8.88;6.10;;;15.60;99.90;;;;;;4119604;28;20093;-73
2021/10/28 16:35:56;;;;;;;9.38;6.20;;;15.60;99.90;;;;;;4119171;28;20034;-73
2021/10/28 16:37:57;;;;;;;11.95;7.38;;;15.60;99.90;;;;;;4119494;28;20049;-73
2021/10/28 16:39:58;;;;;;;14.15;7.22;;;15.50;99.90;;;;;;4118611;28;20081;-74
2021/10/28 16:41:59;;;;;;;12.27;7.32;;;15.50;99.90;;;;;;4120820;28;20043;-74
2021/10/28 16:44:00;;;;;;;16.75;6.50;;;15.40;99.90;;;;;;4122843;28;20553;-74
2021/10/28 16:46:01;;;;;;;11.35;6.88;;;15.40;99.90;;;;;;4122518;28;20073;-73
2021/10/28 16:48:04;;;;;;;11.07;7.18;;;15.40;99.90;;;;;;4112528;28;20437;-73
2021/10/28 16:50:07;;;;;;;16.83;8.05;;;15.40;99.90;;;;;;4112757;28;20133;-74
2021/10/28 16:52:08;;;;;;;13.13;7.20;;;15.40;99.90;;;;;;4132375;28;20052;-73
2021/10/28 16:54:09;;;;;;;9.95;6.85;;;15.30;99.90;;;;;;4122765;28;20121;-74
2021/10/28 16:56:10;;;;;;;11.20;6.72;;;15.30;99.90;;;;;;4123030;28;20046;-73
2021/10/28 16:58:11;;;;;;;12.27;7.68;;;15.30;99.90;;;;;;4123714;28;20739;-74
2021/10/28 17:00:12;;;;;;;11.05;7.20;;;15.30;99.90;;;;;;4122878;28;20141;-73
2021/10/28 17:02:14;;;;;;;11.57;7.72;;;15.30;99.90;;;;;;4120494;28;20533;-73
2021/10/28 17:04:14;;;;;;;15.70;8.93;;;15.20;99.90;;;;;;4121602;28;20664;-74
2021/10/28 17:06:16;;;;;;;12.80;7.97;;;15.10;99.90;;;;;;4123123;28;20054;-73
2021/10/28 17:08:17;;;;;;;23.92;7.65;;;15.10;99.90;;;;;;4124577;28;20315;-73
2021/10/28 17:10:18;;;;;;;14.32;8.65;;;15.10;99.90;;;;;;4121610;28;20033;-74
2021/10/28 17:12:20;;;;;;;12.85;8.38;;;15.00;99.90;;;;;;4124064;28;20038;-73
2021/10/28 17:14:20;;;;;;;16.60;8.70;;;14.90;99.90;;;;;;4121770;28;20125;-73
2021/10/28 17:16:21;;;;;;;12.55;7.70;;;14.80;99.90;;;;;;4120033;28;20069;-74
2021/10/28 17:18:21;;;;;;;14.15;9.10;;;14.80;99.90;;;;;;4122632;28;20030;-73
2021/10/28 17:20:22;;;;;;;15.82;8.57;;;14.80;99.90;;;;;;4121883;28;20045;-74
2021/10/28 17:22:23;;;;;;;14.43;9.68;;;14.80;99.90;;;;;;4122204;28;20320;-74
2021/10/28 17:24:37;;;;;;;18.98;9.30;;;14.70;99.90;;;;;;4124624;28;20031;-74
2021/10/28 17:26:37;;;;;;;20.30;10.73;;;14.60;99.90;;;;;;4121755;28;20066;-74
2021/10/28 17:28:38;;;;;;;14.68;9.48;;;14.50;99.90;;;;;;4120974;28;20074;-74
2021/10/28 17:30:38;;;;;;;13.25;9.07;;;14.50;99.90;;;;;;4122633;28;20022;-74
2021/10/28 17:32:41;;;;;;;16.02;11.07;;;14.50;99.90;;;;;;4122642;28;20034;-74
2021/10/28 17:34:41;;;;;;;16.77;10.13;;;14.40;99.90;;;;;;4122524;28;20042;-74
2021/10/28 17:36:48;;;;;;;16.55;11.13;;;14.40;99.90;;;;;;4122175;28;20072;-74
2021/10/28 17:38:49;;;;;;;18.55;11.10;;;14.30;99.90;;;;;;4120008;28;20117;-74
2021/10/28 17:40:50;;;;;;;21.20;11.65;;;14.20;99.90;;;;;;4124201;28;20484;-74
2021/10/28 17:42:55;;;;;;;19.92;11.35;;;14.20;99.90;;;;;;4128727;28;20065;-74
2021/10/28 17:44:57;;;;;;;22.70;12.05;;;14.20;99.90;;;;;;4126720;28;20034;-74
2021/10/28 17:46:57;;;;;;;18.15;11.70;;;14.10;99.90;;;;;;4126007;28;24357;-74
2021/10/28 17:48:58;;;;;;;15.75;10.02;;;14.20;99.90;;;;;;4124407;28;20184;-74
2021/10/28 17:50:59;;;;;;;18.40;10.68;;;14.10;99.90;;;;;;4122090;28;20402;-74
2021/10/28 17:53:00;;;;;;;19.15;12.00;;;14.10;99.90;;;;;;4122439;28;20164;-74
2021/10/28 17:55:02;;;;;;;19.70;12.20;;;14.10;99.90;;;;;;4121885;28;20043;-74
2021/10/28 17:57:04;;;;;;;22.73;13.02;;;14.10;99.90;;;;;;4126590;28;20035;-74
2021/10/28 17:59:07;;;;;;;19.83;12.93;;;14.00;99.90;;;;;;4122675;28;20409;-74
2021/10/28 18:01:10;;;;;;;20.10;12.15;;;14.00;99.90;;;;;;4120936;28;20046;-74
2021/10/28 18:03:11;;;;;;;22.17;13.68;;;14.00;99.90;;;;;;4122610;28;20035;-74
2021/10/28 18:05:12;;;;;;;24.83;12.60;;;13.90;99.90;;;;;;4124376;28;20424;-74
2021/10/28 18:07:12;;;;;;;21.02;12.88;;;13.90;99.90;;;;;;4120782;28;20731;-74
2021/10/28 18:09:13;;;;;;;23.75;13.52;;;13.80;99.90;;;;;;4124015;28;20031;-74
2021/10/28 18:11:14;;;;;;;18.58;12.30;;;13.70;99.90;;;;;;4122841;28;20074;-74
2021/10/28 18:13:16;;;;;;;18.17;12.07;;;13.80;99.90;;;;;;4126438;28;20570;-74
2021/10/28 18:15:16;;;;;;;22.65;13.18;;;13.80;99.90;;;;;;4124985;28;20030;-74
2021/10/28 18:17:18;;;;;;;19.58;12.82;;;13.70;99.90;;;;;;4122922;28;20069;-74
2021/10/28 18:19:19;;;;;;;23.20;14.32;;;13.70;99.90;;;;;;4125235;28;20610;-74
2021/10/28 18:21:24;;;;;;;23.52;14.40;;;13.70;99.90;;;;;;4124730;28;20026;-74
2021/10/28 18:23:25;;;;;;;21.85;13.25;;;13.50;99.90;;;;;;4123453;28;20458;-74
2021/10/28 18:25:26;;;;;;;26.80;14.43;;;13.60;99.90;;;;;;4121493;28;20091;-74
2021/10/28 18:27:26;;;;;;;25.92;14.73;;;13.40;99.90;;;;;;4125832;28;20027;-74
2021/10/28 18:29:27;;;;;;;22.35;13.73;;;13.30;99.90;;;;;;4125222;28;20562;-74
2021/10/28 18:31:28;;;;;;;25.58;14.63;;;13.40;99.90;;;;;;4120628;28;20034;-74
2021/10/28 18:33:28;;;;;;;21.52;13.48;;;13.30;99.90;;;;;;4125051;28;20598;-74
2021/10/28 18:35:29;;;;;;;22.77;14.13;;;13.30;99.90;;;;;;4121894;28;20031;-74
2021/10/28 18:37:30;;;;;;;23.90;14.90;;;13.30;99.90;;;;;;4122725;28;20041;-74
2021/10/28 18:39:31;;;;;;;25.63;14.85;;;13.30;99.90;;;;;;4124719;28;20057;-74
2021/10/28 18:41:32;;;;;;;23.48;15.45;;;13.30;99.90;;;;;;4124705;28;20845;-74
2021/10/28 18:43:32;;;;;;;27.80;15.55;;;13.10;99.90;;;;;;4124208;28;20041;-74
2021/10/28 18:45:33;;;;;;;25.02;15.70;;;13.20;99.90;;;;;;4119980;28;20042;-74
2021/10/28 18:47:34;;;;;;;24.02;14.95;;;13.10;99.90;;;;;;4127803;28;20060;-74